Time;durP1;ratioP1;P1;durP2;ratioP2;P2;SDS_P1;SDS_P2;PMS_P1;PMS_P2;Temp;Humidity;BMP_temperature;BMP_pressure;BME280_temperature;BME280_humidity;BME280_pressure;Samples;Min_cycle;Max_cycle;Signal;HPM_P1;HPM_P2
2022/09/25 00:00:56;;;;;;;2.25;1.08;;;;;;;;;;5015340;28;20033;-64
2022/09/25 00:03:25;;;;;;;1.38;1.10;;;;;;;;;;5014974;28;20149;-65
2022/09/25 00:05:52;;;;;;;2.83;1.08;;;;;;;;;;5015004;28;20552;-64
2022/09/25 00:08:20;;;;;;;1.98;1.33;;;;;;;;;;5015007;28;20577;-64
2022/09/25 00:10:49;;;;;;;1.55;1.30;;;;;;;;;;5015066;28;20017;-64
2022/09/25 00:13:20;;;;;;;2.40;1.43;;;;;;;;;;5015002;28;20431;-64
2022/09/25 00:15:52;;;;;;;2.25;1.50;;;;;;;;;;5015223;28;20105;-64
2022/09/25 00:21:08;;;;;;;2.80;1.40;;;;;;;;;;5013657;28;20037;-64
2022/09/25 00:23:35;;;;;;;2.38;1.20;;;;;;;;;;5014685;28;20022;-64
2022/09/25 00:26:04;;;;;;;2.25;1.17;;;;;;;;;;5015046;28;20022;-66
2022/09/25 00:28:32;;;;;;;2.78;1.50;;;;;;;;;;5014684;28;20026;-65
2022/09/25 00:30:59;;;;;;;1.77;1.40;;;;;;;;;;5014636;28;20437;-66
2022/09/25 00:33:27;;;;;;;1.35;1.20;;;;;;;;;;5014552;28;20029;-65
2022/09/25 00:35:54;;;;;;;2.83;1.20;;;;;;;;;;5013311;28;20539;-66
2022/09/25 00:38:22;;;;;;;1.50;1.20;;;;;;;;;;5013472;28;20034;-65
2022/09/25 00:40:49;;;;;;;2.22;1.10;;;;;;;;;;5014494;28;20030;-66
2022/09/25 00:43:36;;;;;;;2.55;1.10;;;19.80;99.90;;;;;;5014275;28;20033;-66
2022/09/25 00:46:07;;;;;;;2.78;1.35;;;;;;;;;;5014477;28;20101;-66
2022/09/25 00:48:34;;;;;;;1.98;1.30;;;;;;;;;;5014339;28;20022;-65
2022/09/25 00:51:02;;;;;;;2.30;1.30;;;;;;;;;;5014474;28;20022;-65
2022/09/25 00:53:32;;;;;;;1.38;0.90;;;;;;;;;;5012960;28;20459;-65
2022/09/25 00:56:00;;;;;;;3.03;1.13;;;;;;;;;;5013030;28;20029;-65
2022/09/25 00:58:28;;;;;;;1.70;0.98;;;;;;;;;;5014000;28;20064;-65
2022/09/25 01:00:55;;;;;;;2.00;0.98;;;;;;;;;;5014114;28;20076;-65
2022/09/25 01:03:23;;;;;;;2.80;1.05;;;;;;;;;;5013707;28;20101;-66
2022/09/25 01:05:50;;;;;;;1.55;1.00;;;;;;;;;;5014103;28;20034;-66
2022/09/25 01:08:19;;;;;;;3.22;1.10;;;;;;;;;;5013986;28;20029;-66
2022/09/25 01:10:46;;;;;;;1.45;1.10;;;;;;;;;;5012728;28;20463;-66
2022/09/25 01:13:14;;;;;;;1.38;0.80;;;;;;;;;;5013917;28;20105;-66
2022/09/25 01:15:41;;;;;;;0.80;0.60;;;;;;;;;;5013780;28;20098;-65
2022/09/25 01:18:27;;;;;;;1.98;0.80;;;;;;;;;;5012497;28;20503;-65
2022/09/25 01:20:55;;;;;;;1.25;0.90;;;;;;;;;;5014023;28;20080;-65
2022/09/25 01:23:40;;;;;;;0.80;0.60;;;;;;;;;;5013623;28;20078;-65
2022/09/25 01:26:26;;;;;;;1.52;0.85;;;;;;;;;;5013720;28;20097;-66
2022/09/25 01:28:59;;;;;;;1.88;0.95;;;;;;;;;;5013181;28;20077;-66
2022/09/25 01:31:42;;;;;;;1.27;0.75;;;;;;;;;;5013540;28;20018;-66
2022/09/25 01:34:16;;;;;;;2.60;1.10;;;;;;;;;;5013736;28;20492;-65
2022/09/25 01:37:07;;;;;;;2.45;1.10;;;;;;;;;;5013825;28;20040;-66
2022/09/25 01:39:45;;;;;;;2.83;1.17;;;;;;;;;;5010592;28;20033;-66
2022/09/25 01:42:27;;;;;;;1.25;0.70;;;;;;;;;;5013444;28;20034;-66
2022/09/25 01:45:01;;;;;;;1.60;0.70;;;21.50;99.90;;;;;;5012117;28;20021;-66
2022/09/25 01:47:34;;;;;;;0.90;0.70;;;21.50;99.90;;;;;;5013293;28;20061;-66
2022/09/25 01:50:24;;;;;;;1.63;0.75;;;21.60;99.90;;;;;;5013400;28;20018;-67
2022/09/25 01:52:53;;;;;;;0.77;0.67;;;;;;;;;;5013331;28;20056;-66
2022/09/25 01:55:30;;;;;;;1.40;0.82;;;;;;;;;;5013143;28;20094;-68
2022/09/25 01:58:03;;;;;;;2.35;0.90;;;;;;;;;;5012036;28;20035;-70
2022/09/25 02:00:36;;;;;;;1.52;0.93;;;22.60;99.90;;;;;;5013204;28;20032;-71
2022/09/25 02:03:10;;;;;;;3.35;1.20;;;;;;;;;;5012974;28;20385;-70
2022/09/25 02:05:51;;;;;;;0.93;0.80;;;22.60;99.70;;;;;;5013014;28;20057;-70
2022/09/25 02:08:22;;;;;;;0.95;0.90;;;;;;;;;;5013126;28;20085;-71
2022/09/25 02:10:54;;;;;;;1.25;0.90;;;;;;;;;;5013213;28;20018;-71
2022/09/25 02:13:24;;;;;;;2.25;1.15;;;;;;;;;;5013014;28;20026;-70
2022/09/25 02:15:51;;;;;;;1.67;1.42;;;;;;;;;;5013096;28;20030;-71
2022/09/25 02:21:07;;;;;;;1.65;1.15;;;;;;;;;;5013203;28;20088;-70
2022/09/25 02:23:45;;;;;;;2.22;1.08;;;;;;;;;;5012863;28;20026;-71
2022/09/25 02:26:16;;;;;;;1.70;1.20;;;;;;;;;;5012845;28;20141;-70
2022/09/25 02:28:43;;;;;;;1.55;1.08;;;;;;;;;;5013008;28;20014;-71
2022/09/25 02:31:12;;;;;;;4.10;1.02;;;;;;;;;;5012935;28;20072;-72
2022/09/25 02:33:39;;;;;;;12.50;11.20;;;;;;;;;;5011546;28;20581;-71
2022/09/25 02:36:07;;;;;;;5.32;4.65;;;;;;;;;;5011403;28;20068;-70
2022/09/25 02:38:35;;;;;;;57.13;51.05;;;;;;;;;;5011716;28;20032;-70
2022/09/25 02:41:22;;;;;;;190.77;171.25;;;;;;;;;;5013911;28;20022;-70
2022/09/25 02:44:15;;;;;;;11.77;10.57;;;;;;;;;;5008530;28;20061;-72
2022/09/25 02:46:58;;;;;;;32.65;28.63;;;;;;;;;;5015587;28;20425;-69
2022/09/25 02:49:34;;;;;;;1.65;1.20;;;;;;;;;;5015413;28;20486;-70
2022/09/25 02:52:07;;;;;;;2.00;1.00;;;;;;;;;;5016789;28;20089;-66
2022/09/25 02:54:40;;;;;;;2.15;1.70;;;;;;;;;;5016600;28;20092;-66
2022/09/25 02:57:30;;;;;;;129.77;116.32;;;;;;;;;;5016376;28;20364;-66
2022/09/25 03:00:00;;;;;;;120.03;108.07;;;;;;;;;;4997106;28;20026;-66
2022/09/25 03:02:28;;;;;;;33.43;29.90;;;;;;;;;;5016202;28;20101;-66
2022/09/25 03:04:56;;;;;;;34.95;31.25;;;;;;;;;;5016428;28;20092;-66
2022/09/25 03:07:23;;;;;;;4.25;3.85;;;;;;;;;;5016035;28;20045;-67
2022/09/25 03:09:54;;;;;;;1.65;0.80;;;;;;;;;;5015038;28;20370;-66
2022/09/25 03:12:21;;;;;;;4.20;3.80;;;;;;;;;;5014746;28;20025;-66
2022/09/25 03:14:48;;;;;;;9.70;8.75;;;;;;;;;;5014931;28;20026;-66
2022/09/25 03:17:16;;;;;;;11.25;9.93;;;;;;;;;;5015953;28;20029;-66
2022/09/25 03:19:43;;;;;;;3.50;3.17;;;;;;;;;;5016484;28;20029;-66
2022/09/25 03:22:10;;;;;;;2.25;1.42;;;;;;;;;;5016080;28;20021;-66
2022/09/25 03:24:38;;;;;;;6.28;4.28;;;;;;;;;;5016127;28;20072;-66
2022/09/25 03:27:05;;;;;;;3.35;1.42;;;;;;;;;;5014708;28;20609;-66
2022/09/25 03:29:32;;;;;;;5.80;3.10;;;;;;;;;;5015972;28;20042;-66
2022/09/25 03:31:59;;;;;;;6.80;4.80;;;;;;;;;;5015868;28;20367;-67
2022/09/25 03:34:26;;;;;;;1.95;1.38;;;;;;;;;;5016035;28;20445;-67
2022/09/25 03:36:54;;;;;;;2.65;1.23;;;;;;;;;;5015767;28;20148;-66
2022/09/25 03:39:21;;;;;;;2.83;2.40;;;;;;;;;;5015718;28;20490;-67
2022/09/25 03:41:48;;;;;;;3.50;1.63;;;;;;;;;;5015720;28;20093;-67
2022/09/25 03:44:15;;;;;;;2.90;1.60;;;;;;;;;;5015709;28;20018;-67
2022/09/25 03:46:42;;;;;;;4.78;1.60;;;;;;;;;;5014348;28;20026;-67
2022/09/25 03:49:09;;;;;;;2.45;1.23;;;;;;;;;;5015526;28;20363;-68
2022/09/25 03:51:37;;;;;;;2.78;1.55;;;;;;;;;;5014015;28;20052;-67
2022/09/25 03:54:04;;;;;;;2.83;1.23;;;;;;;;;;5015349;28;20045;-72
2022/09/25 03:56:32;;;;;;;3.70;1.75;;;;;;;;;;5015361;28;20505;-69
2022/09/25 03:58:59;;;;;;;4.38;1.88;;;;;;;;;;5015563;28;20045;-68
2022/09/25 04:01:27;;;;;;;1.98;1.45;;;;;;;;;;5015264;28;20026;-67
2022/09/25 04:03:54;;;;;;;3.03;1.50;;;;;;;;;;5014897;28;20508;-68
2022/09/25 04:06:23;;;;;;;2.08;1.30;;;;;;;;;;5013352;28;20053;-68
2022/09/25 04:08:50;;;;;;;2.58;1.75;;;;;;;;;;5013615;28;20021;-68
2022/09/25 04:11:18;;;;;;;4.40;1.58;;;;;;;;;;5013602;28;20049;-68
2022/09/25 04:13:48;;;;;;;2.60;1.60;;;;;;;;;;5013506;28;20048;-69
2022/09/25 04:16:16;;;;;;;1.88;1.30;;;;;;;;;;5013587;28;20025;-68
2022/09/25 04:18:43;;;;;;;3.20;1.48;;;;;;;;;;5013439;28;20034;-69
2022/09/25 04:21:12;;;;;;;2.08;1.23;;;;;;;;;;5012231;28;20212;-68
2022/09/25 04:23:39;;;;;;;3.40;1.52;;;;;;;;;;5012581;28;20184;-68
2022/09/25 04:26:07;;;;;;;2.75;1.50;;;;;;;;;;5014575;28;20018;-68
2022/09/25 04:28:34;;;;;;;2.33;1.60;;;;;;;;;;5013469;28;20037;-68
2022/09/25 04:31:02;;;;;;;3.30;1.30;;;;;;;;;;5014763;28;20386;-69
2022/09/25 04:33:48;;;;;;;2.40;0.82;;;;;;;;;;5014977;28;20026;-70
2022/09/25 04:36:16;;;;;;;2.75;1.10;;;;;;;;;;5014951;28;20026;-69
2022/09/25 04:38:43;;;;;;;3.53;1.55;;;;;;;;;;5014782;28;20022;-68
2022/09/25 04:41:10;;;;;;;2.17;1.17;;;;;;;;;;5014558;28;20058;-69
2022/09/25 04:43:38;;;;;;;3.25;1.10;;;;;;;;;;5014417;28;20475;-69
2022/09/25 04:46:07;;;;;;;2.40;1.00;;;;;;;;;;5014662;28;20025;-71
2022/09/25 04:48:34;;;;;;;2.30;1.23;;;;;;;;;;5013140;28;20509;-69
2022/09/25 04:51:01;;;;;;;1.83;1.10;;;;;;;;;;5014200;28;20021;-69
2022/09/25 04:53:29;;;;;;;1.88;1.02;;;;;;;;;;5013068;28;20032;-68
2022/09/25 04:56:04;;;;;;;3.22;1.38;;;;;;;;;;5014338;28;20060;-68
2022/09/25 04:58:31;;;;;;;2.35;1.10;;;;;;;;;;5014055;28;20037;-69
2022/09/25 05:01:05;;;;;;;2.47;1.00;;;;;;;;;;5014176;28;20486;-69
2022/09/25 05:03:32;;;;;;;2.38;0.90;;;;;;;;;;5013237;28;20033;-67
2022/09/25 05:05:59;;;;;;;1.85;0.90;;;;;;;;;;5012580;28;20485;-67
2022/09/25 05:08:27;;;;;;;3.70;0.80;;;;;;;;;;5012775;28;20018;-68
2022/09/25 05:10:54;;;;;;;1.85;1.00;;;;;;;;;;5013874;28;20032;-68
2022/09/25 05:13:22;;;;;;;2.55;0.82;;;;;;;;;;5013953;28;20029;-68
2022/09/25 05:15:49;;;;;;;2.80;1.10;;;;;;;;;;5012626;28;20521;-67
2022/09/25 05:18:18;;;;;;;2.85;1.00;;;;;;;;;;5012602;28;20394;-67
2022/09/25 05:20:45;;;;;;;3.53;1.08;;;;;;;;;;5013935;28;20024;-67
2022/09/25 05:23:13;;;;;;;2.67;1.00;;;;;;;;;;5013722;28;20049;-68
2022/09/25 05:25:40;;;;;;;2.00;1.08;;;;;;;;;;5013620;28;20096;-67
2022/09/25 05:28:07;;;;;;;1.58;0.98;;;;;;;;;;5012456;28;20045;-67
2022/09/25 05:30:34;;;;;;;2.15;0.80;;;;;;;;;;5013621;28;20022;-67
2022/09/25 05:33:01;;;;;;;2.20;0.88;;;;;;;;;;5013721;28;20504;-68
2022/09/25 05:35:30;;;;;;;2.55;0.80;;;;;;;;;;5013614;28;20052;-68
2022/09/25 05:37:58;;;;;;;1.35;0.77;;;;;;;;;;5012341;28;20113;-66
2022/09/25 05:40:25;;;;;;;3.92;0.73;;;;;;;;;;5013506;28;20030;-67
2022/09/25 05:42:53;;;;;;;3.30;0.90;;;;;;;;;;5013366;28;20071;-68
2022/09/25 05:45:22;;;;;;;2.30;1.00;;;;;;;;;;5012284;28;20087;-67
2022/09/25 05:47:49;;;;;;;1.00;0.60;;;;;;;;;;5013480;28;20575;-68
2022/09/25 05:50:17;;;;;;;1.90;0.80;;;;;;;;;;5013523;28;20497;-68
2022/09/25 05:52:44;;;;;;;2.28;0.90;;;;;;;;;;5013383;28;20386;-67
2022/09/25 05:55:11;;;;;;;2.85;1.00;;;;;;;;;;5013483;28;20474;-67
2022/09/25 05:57:38;;;;;;;2.92;1.00;;;;;;;;;;5013296;28;20026;-67
2022/09/25 06:00:12;;;;;;;4.88;1.10;;;;;;;;;;5011954;28;20022;-68
2022/09/25 06:02:39;;;;;;;2.60;1.08;;;;;;;;;;5011823;28;20038;-68
2022/09/25 06:05:07;;;;;;;3.45;0.90;;;;;;;;;;5013307;28;20022;-67
2022/09/25 06:07:35;;;;;;;2.03;0.80;;;;;;;;;;5012949;28;20092;-67
2022/09/25 06:10:02;;;;;;;4.55;1.20;;;;;;;;;;5013165;28;20382;-68
2022/09/25 06:12:30;;;;;;;4.97;1.30;;;;;;;;;;5013178;28;20140;-67
2022/09/25 06:14:57;;;;;;;1.80;0.80;;;;;;;;;;5014236;28;20029;-66
2022/09/25 06:17:24;;;;;;;5.53;1.20;;;;;;;;;;5017066;28;20549;-67
2022/09/25 06:19:51;;;;;;;2.05;0.77;;;;;;;;;;5015931;28;20113;-68
2022/09/25 06:22:18;;;;;;;2.47;0.90;;;;;;;;;;5016993;28;20108;-69
2022/09/25 06:24:47;;;;;;;2.65;0.80;;;;;;;;;;5015834;28;20056;-68
2022/09/25 06:27:14;;;;;;;2.00;0.80;;;;;;;;;;5015612;28;20425;-69
2022/09/25 06:29:41;;;;;;;2.20;0.80;;;;;;;;;;5016995;28;20022;-69
2022/09/25 06:32:08;;;;;;;2.50;0.88;;;;;;;;;;5015836;28;20032;-69
2022/09/25 06:34:36;;;;;;;1.80;0.80;;;;;;;;;;5014969;28;20097;-70
2022/09/25 06:37:03;;;;;;;3.13;0.80;;;;;;;;;;5016655;28;20432;-69
2022/09/25 06:39:32;;;;;;;2.03;0.88;;;;;;;;;;5016854;28;20022;-69
2022/09/25 06:41:59;;;;;;;3.15;0.88;;;;;;;;;;5015558;28;20418;-69
2022/09/25 06:44:27;;;;;;;1.92;0.90;;;;;;;;;;5016937;28;20025;-69
2022/09/25 06:46:54;;;;;;;1.73;0.90;;;;;;;;;;5015388;28;20026;-69
2022/09/25 06:49:21;;;;;;;0.98;0.60;;;;;;;;;;5016506;28;20049;-69
2022/09/25 06:51:50;;;;;;;2.83;1.00;;;;;;;;;;5016569;28;20026;-69
2022/09/25 06:54:17;;;;;;;1.70;0.85;;;;;;;;;;5016457;28;20107;-69
2022/09/25 06:56:44;;;;;;;2.20;0.82;;;;;;;;;;5016512;28;20018;-69
2022/09/25 06:59:11;;;;;;;1.40;0.80;;;;;;;;;;5015028;28;20029;-69
2022/09/25 07:01:38;;;;;;;2.55;1.00;;;;;;;;;;5016487;28;20026;-69
2022/09/25 07:04:05;;;;;;;7.10;1.73;;;;;;;;;;5016162;28;20080;-67
2022/09/25 07:06:33;;;;;;;3.75;1.00;;;;;;;;;;5014780;28;20449;-67
2022/09/25 07:09:02;;;;;;;2.17;0.90;;;;;;;;;;5016036;28;20490;-66
2022/09/25 07:11:32;;;;;;;1.92;0.80;;;;;;;;;;5014863;28;20030;-68
2022/09/25 07:13:59;;;;;;;3.15;0.90;;;;;;;;;;5016477;28;20478;-68
2022/09/25 07:16:28;;;;;;;2.53;1.00;;;;;;;;;;5016298;28;20449;-68
2022/09/25 07:18:58;;;;;;;2.22;0.90;;;;;;;;;;5014870;28;20080;-67
2022/09/25 07:21:28;;;;;;;1.50;0.80;;;;;;;;;;5016072;28;20025;-68
2022/09/25 07:23:57;;;;;;;3.35;1.10;;;;;;;;;;5016126;28;20026;-69
2022/09/25 07:26:25;;;;;;;2.58;0.90;;;;;;;;;;5015774;28;20091;-68
2022/09/25 07:28:55;;;;;;;1.50;0.70;;;;;;;;;;5015952;28;20097;-68
2022/09/25 07:31:24;;;;;;;4.18;0.68;;;;;;;;;;5016082;28;20037;-68
2022/09/25 07:33:52;;;;;;;1.80;0.80;;;;;;;;;;5015972;28;20079;-71
2022/09/25 07:36:19;;;;;;;2.90;1.05;;;;;;;;;;5014581;28;20034;-71
2022/09/25 07:38:52;;;;;;;1.50;0.77;;;;;;;;;;5016112;28;20155;-71
2022/09/25 07:41:21;;;;;;;2.55;0.80;;;;;;;;;;5015700;28;20030;-71
2022/09/25 07:43:52;;;;;;;1.65;0.80;;;;;;;;;;5015494;28;20022;-72
2022/09/25 07:46:19;;;;;;;3.40;1.77;;;;;;;;;;5014275;28;20034;-72
2022/09/25 07:48:48;;;;;;;3.92;2.83;;;;;;;;;;5015776;28;20029;-71
2022/09/25 07:51:15;;;;;;;4.40;3.03;;;;;;;;;;5015866;28;20076;-71
2022/09/25 07:53:44;;;;;;;3.47;1.80;;;;;;;;;;5015583;28;20524;-72
2022/09/25 07:56:14;;;;;;;3.78;1.40;;;;;;;;;;5014071;28;20409;-71
2022/09/25 07:58:41;;;;;;;2.28;1.05;;;;;;;;;;5014130;28;20036;-69
2022/09/25 08:01:11;;;;;;;3.42;1.40;;;;;;;;;;5015513;28;20493;-68
2022/09/25 08:03:38;;;;;;;2.10;1.00;;;;;;;;;;5015303;28;20022;-68
2022/09/25 08:06:08;;;;;;;2.45;1.20;;;;;;;;;;5014893;28;20049;-68
2022/09/25 08:08:35;;;;;;;2.95;0.98;;;;;;;;;;5015236;28;20503;-69
2022/09/25 08:11:10;;;;;;;1.50;0.98;;;;;;;;;;5014956;28;20087;-68
2022/09/25 08:13:38;;;;;;;3.33;1.13;;;;;;;;;;5015094;28;20026;-68
2022/09/25 08:16:06;;;;;;;2.42;1.10;;;;;;;;;;5013604;28;20022;-68
2022/09/25 08:18:33;;;;;;;4.53;1.63;;;;;;;;;;5015094;28;20029;-68
2022/09/25 08:21:02;;;;;;;4.63;1.30;;;;;;;;;;5014833;28;20104;-68
2022/09/25 08:23:29;;;;;;;2.88;1.20;;;;;;;;;;5015178;28;20494;-70
2022/09/25 08:25:56;;;;;;;3.08;1.52;;;;;;;;;;5015231;28;20474;-69
2022/09/25 08:28:23;;;;;;;3.83;1.60;;;;;;;;;;5015228;28;20053;-68
2022/09/25 08:30:51;;;;;;;3.13;1.30;;;;;;;;;;5015025;28;20026;-68
2022/09/25 08:33:18;;;;;;;2.47;1.27;;;;;;;;;;5014807;28;20026;-69
2022/09/25 08:35:55;;;;;;;3.08;1.27;;;;;;;;;;5014829;28;20103;-69
2022/09/25 08:38:23;;;;;;;3.65;1.40;;;;;;;;;;5013737;28;20525;-68
2022/09/25 08:41:10;;;;;;;3.15;1.23;;;;;;;;;;5014596;28;20022;-68
2022/09/25 08:43:57;;;;;;;2.22;1.35;;;;;;;;;;5014444;28;20308;-68
2022/09/25 08:49:14;;;;;;;4.15;1.30;;;;;;;;;;5014649;28;20033;-67
2022/09/25 08:51:49;;;;;;;4.93;2.47;;;;;;;;;;5014447;28;20028;-67
2022/09/25 08:54:22;;;;;;;4.97;2.55;;;;;;;;;;5014560;28;20115;-68
2022/09/25 08:56:52;;;;;;;7.85;4.90;;;;;;;;;;5014600;28;20030;-68
2022/09/25 08:59:46;;;;;;;9.25;4.82;;;;;;;;;;5014258;28;20030;-68
2022/09/25 09:02:15;;;;;;;8.95;5.95;;;;;;;;;;5013184;28;20033;-68
2022/09/25 09:04:48;;;;;;;6.90;3.90;;;;;;;;;;5014196;28;20442;-68
2022/09/25 09:07:20;;;;;;;7.20;3.83;;;;;;;;;;5012790;28;20045;-68
2022/09/25 09:09:50;;;;;;;6.03;3.63;;;;;;;;;;5012832;28;20041;-68
2022/09/25 09:12:23;;;;;;;6.75;4.22;;;;;;;;;;5012922;28;20501;-69
2022/09/25 09:14:52;;;;;;;7.72;4.53;;;;;;;;;;5014308;28;20025;-68
2022/09/25 09:17:21;;;;;;;7.88;5.38;;;;;;;;;;5013882;28;20029;-69
2022/09/25 09:20:10;;;;;;;7.40;4.38;;;;;;;;;;5014114;28;20046;-69
2022/09/25 09:22:40;;;;;;;5.63;3.70;;;;;;;;;;5007391;28;20034;-68
2022/09/25 09:25:17;;;;;;;4.20;2.50;;;;;;;;;;5013849;28;20105;-68
2022/09/25 09:27:47;;;;;;;7.15;2.90;;;;;;;;;;5014135;28;20041;-68
2022/09/25 09:30:32;;;;;;;6.68;2.33;;;;;;;;;;5013844;28;20021;-68
2022/09/25 09:33:08;;;;;;;4.72;2.95;;;;;;;;;;5012478;28;20038;-69
2022/09/25 09:35:42;;;;;;;6.30;2.50;;;;;;;;;;5013642;28;20057;-69
2022/09/25 09:38:25;;;;;;;5.60;2.50;;;;;;;;;;5013711;28;20029;-69
2022/09/25 09:40:52;;;;;;;5.28;2.10;;;;;;;;;;5013839;28;20022;-69
2022/09/25 09:43:30;;;;;;;7.22;2.20;;;;;;;;;;5013485;28;20076;-68
2022/09/25 09:46:06;;;;;;;5.38;2.97;;;;;;;;;;5013921;28;20015;-69
2022/09/25 09:48:33;;;;;;;5.05;2.78;;;;;;;;;;5013510;28;20429;-69
2022/09/25 09:51:07;;;;;;;5.38;2.70;;;;;;;;;;5011983;28;20046;-69
2022/09/25 09:54:03;;;;;;;9.90;3.42;;;;;;;;;;5013514;28;20022;-69
2022/09/25 09:56:31;;;;;;;6.80;3.65;;;;;;;;;;5008725;28;20042;-68
2022/09/25 09:59:18;;;;;;;8.48;4.07;;;;;;;;;;5013286;28;20025;-69
2022/09/25 10:01:49;;;;;;;3.78;2.40;;;;;;;;;;5013091;28;20030;-69
2022/09/25 10:04:18;;;;;;;3.90;1.90;;;;;;;;;;5011935;28;20394;-68
2022/09/25 10:06:48;;;;;;;3.20;1.70;;;;;;;;;;5012990;28;20042;-69
2022/09/25 10:09:16;;;;;;;2.72;1.80;;;;;;;;;;5013057;28;20018;-68
2022/09/25 10:11:47;;;;;;;4.60;1.90;;;;;;;;;;5013309;28;20060;-67
2022/09/25 10:14:13;;;;;;;;;;;;;;;;;;5012323;28;20026;-67
2022/09/25 10:16:40;;;;;;;2.45;1.50;;;;;;;;;;5013219;28;19913;-66
2022/09/25 10:19:11;;;;;;;4.47;1.65;;;;;;;;;;5013198;28;20025;-67
2022/09/25 10:21:38;;;;;;;2.88;1.67;;;;;;;;;;5011846;28;20132;-67
2022/09/25 10:24:06;;;;;;;2.85;1.70;;;;;;;;;;5013472;28;20022;-67
2022/09/25 10:26:37;;;;;;;3.95;1.70;;;;;;;;;;5013056;28;20026;-67
2022/09/25 10:29:10;;;;;;;2.88;1.85;;;;;;;;;;5013346;28;20022;-68
2022/09/25 10:31:38;;;;;;;2.25;1.50;;;;;;;;;;5013057;28;20386;-67
2022/09/25 10:34:06;;;;;;;4.07;1.85;;;;;;;;;;5012997;28;20026;-68
2022/09/25 10:36:38;;;;;;;4.53;2.35;;;;;;;;;;5013212;28;20453;-68
2022/09/25 10:39:07;;;;;;;5.45;2.92;;;;;;;;;;5011736;28;20068;-68
2022/09/25 10:41:43;;;;;;;5.43;3.17;;;;;;;;;;5012929;28;20091;-68
2022/09/25 10:44:20;;;;;;;6.32;2.58;;;;;;;;;;5012822;28;20394;-67
2022/09/25 10:52:29;;;;;;;4.00;2.30;;;;;;;;;;5013086;28;20037;-67
2022/09/25 10:55:13;;;;;;;4.65;2.35;;;;;;;;;;5012772;28;20026;-67
2022/09/25 10:57:41;;;;;;;5.13;2.45;;;;;;;;;;5013129;28;20026;-68
2022/09/25 11:00:22;;;;;;;5.03;2.50;;;;;;;;;;5012880;28;20048;-67
2022/09/25 11:02:55;;;;;;;4.88;2.42;;;;;;;;;;5014913;28;20026;-67
2022/09/25 11:05:25;;;;;;;6.70;2.45;;;;;;;;;;5016377;28;20032;-68
2022/09/25 11:07:54;;;;;;;5.07;2.92;;;;;;;;;;5016587;28;20052;-67
2022/09/25 11:10:26;;;;;;;6.18;2.83;;;;;;;;;;5016556;28;20026;-67
2022/09/25 11:12:55;;;;;;;3.65;2.00;;;;;;;;;;5015107;28;20049;-67
2022/09/25 11:15:26;;;;;;;5.10;2.72;;;;;;;;;;5014972;28;20052;-67
2022/09/25 11:17:55;;;;;;;6.25;2.78;;;;;;;;;;5016359;28;20029;-68
2022/09/25 11:20:29;;;;;;;3.58;2.33;;;;;;;;;;5016345;28;20018;-67
2022/09/25 11:23:08;;;;;;;4.88;2.22;;;;;;;;;;5014822;28;20030;-68
2022/09/25 11:25:39;;;;;;;4.20;2.20;;;;;;;;;;5016134;28;20037;-67
2022/09/25 11:28:24;;;;;;;4.70;2.65;;;;;;;;;;5016377;28;20096;-68
2022/09/25 11:31:14;;;;;;;4.00;1.80;;;;;;;;;;5016204;28;20097;-67
2022/09/25 11:33:47;;;;;;;5.00;2.80;;;;;;;;;;5012973;28;20491;-68
2022/09/25 11:36:41;;;;;;;3.72;2.25;;;;;;;;;;5015966;28;20026;-68
2022/09/25 11:42:33;;;;;;;4.10;2.25;;;;;;;;;;5006556;28;20398;-68
2022/09/25 11:45:00;;;;;;;6.28;2.55;;;;;;;;;;5015945;28;20071;-68
2022/09/25 11:47:53;;;;;;;5.07;2.75;;;;;;;;;;5015960;28;20022;-68
2022/09/25 11:50:21;;;;;;;5.93;2.70;;;;;;;;;;5015958;28;20025;-67
2022/09/25 11:52:49;;;;;;;4.82;2.40;;;;;;;;;;5014309;28;20494;-67
2022/09/25 11:55:20;;;;;;;5.47;2.70;;;;;;;;;;5015578;28;20505;-67
2022/09/25 11:58:06;;;;;;;4.72;2.75;;;;;;;;;;5014315;28;20371;-67
2022/09/25 12:00:43;;;;;;;7.35;2.75;;;;;;;;;;5014205;28;20041;-67
2022/09/25 12:03:27;;;;;;;6.75;2.70;;;;;;;;;;5015320;28;20037;-66
2022/09/25 12:06:06;;;;;;;4.95;2.45;;;;;;;;;;5015325;28;20068;-66
2022/09/25 12:08:47;;;;;;;4.93;2.50;;;;;;;;;;5014047;28;20109;-66
2022/09/25 12:11:14;;;;;;;4.72;2.72;;;;;;;;;;5015564;28;20045;-66
2022/09/25 12:13:48;;;;;;;4.40;2.65;;;;;;;;;;5014835;28;20072;-66
2022/09/25 12:16:18;;;;;;;5.15;2.75;;;;;;;;;;5015321;28;20444;-67
2022/09/25 12:18:54;;;;;;;4.85;2.50;;;;;;;;;;5015310;28;20029;-67
2022/09/25 12:21:33;;;;;;;7.90;3.47;;;;;;;;;;5013846;28;20467;-67
2022/09/25 12:24:10;;;;;;;4.40;2.63;;;;;;;;;;5014992;28;20076;-67
2022/09/25 12:26:51;;;;;;;6.53;2.95;;;;;;;;;;5015012;28;20053;-67
2022/09/25 12:29:40;;;;;;;4.72;3.03;;;;;;;;;;5013665;28;20022;-67
2022/09/25 12:32:08;;;;;;;5.93;2.70;;;;;;;;;;5014932;28;20069;-66
2022/09/25 12:34:36;;;;;;;4.35;2.88;;;;;;;;;;5014796;28;20332;-66
2022/09/25 12:37:12;;;;;;;7.07;3.25;;;;;;;;;;5013581;28;20490;-67
2022/09/25 12:39:46;;;;;;;8.32;3.53;;;;;;;;;;5014878;28;20482;-67
2022/09/25 12:42:25;;;;;;;6.32;3.65;;;;;;;;;;5014537;28;20032;-67
2022/09/25 12:45:13;;;;;;;6.47;3.67;;;;;;;;;;5014657;28;20044;-67
2022/09/25 12:47:45;;;;;;;5.13;3.22;;;;;;;;;;5014764;28;20029;-67
2022/09/25 12:50:34;;;;;;;5.80;3.35;;;;;;;;;;5013367;28;20018;-67
2022/09/25 12:53:14;;;;;;;7.20;3.35;;;;;;;;;;5014625;28;20029;-67
2022/09/25 12:55:48;;;;;;;4.95;2.95;;;;;;;;;;5014448;28;20030;-67
2022/09/25 12:58:23;;;;;;;7.60;3.25;;;;;;;;;;5014777;28;20030;-67
2022/09/25 13:00:58;;;;;;;7.50;3.75;;;;;;;;;;5014731;28;20536;-68
2022/09/25 13:03:36;;;;;;;5.65;3.50;;;;;;;;;;5014301;28;20022;-68
2022/09/25 13:06:07;;;;;;;6.68;3.50;;;;;;;;;;5014234;28;20041;-68
2022/09/25 13:08:34;;;;;;;8.88;3.72;;;;;;;;;;5014406;28;20098;-68
2022/09/25 13:11:08;;;;;;;7.43;3.60;;;;;;;;;;5014168;28;20436;-68
2022/09/25 13:13:44;;;;;;;6.72;3.75;;;;;;;;;;5012937;28;20026;-68
2022/09/25 13:16:14;;;;;;;5.22;3.10;;;;;;;;;;5014421;28;20064;-68
2022/09/25 13:18:49;;;;;;;5.20;3.63;;;;;;;;;;5014431;28;20418;-68
2022/09/25 13:21:29;;;;;;;5.60;3.35;;;;;;;;;;5014038;28;20021;-68
2022/09/25 13:23:58;;;;;;;6.40;3.55;;;;;;;;;;5013973;28;20062;-68
2022/09/25 13:26:26;;;;;;;5.00;3.35;;;;;;;;;;5013698;28;20014;-68
2022/09/25 13:28:57;;;;;;;6.07;3.67;;;;;;;;;;5014123;28;20021;-68
2022/09/25 13:31:28;;;;;;;8.20;4.13;;;;;;;;;;5013843;28;20028;-67
2022/09/25 13:34:02;;;;;;;6.95;4.10;;;;;;;;;;5013901;28;20026;-67
2022/09/25 13:36:34;;;;;;;6.43;3.58;;;;;;;;;;5013967;28;20053;-67
2022/09/25 13:41:54;;;;;;;7.07;4.22;;;;;;;;;;5014048;28;20117;-67
2022/09/25 13:44:40;;;;;;;6.35;3.97;;;;;;;;;;5012310;28;20033;-68
2022/09/25 13:47:22;;;;;;;5.53;3.88;;;;;;;;;;5012434;28;20026;-67
2022/09/25 13:50:06;;;;;;;5.82;4.32;;;;;;;;;;5013529;28;20084;-67
2022/09/25 13:52:39;;;;;;;7.38;4.00;;;;;;;;;;5013681;28;20022;-67
2022/09/25 13:55:18;;;;;;;6.72;3.80;;;;;;;;;;5013748;28;20544;-68
2022/09/25 13:57:54;;;;;;;5.03;3.60;;;;;;;;;;5013471;28;20110;-68
2022/09/25 14:00:22;;;;;;;5.72;3.88;;;;;;;;;;5013416;28;20022;-67
2022/09/25 14:02:50;;;;;;;8.57;4.25;;;;;;;;;;5013476;28;20030;-67
2022/09/25 14:05:23;;;;;;;5.88;4.05;;;;;;;;;;5012082;28;20145;-67
2022/09/25 14:07:54;;;;;;;4.95;3.35;;;;;;;;;;5013561;28;20026;-67
2022/09/25 14:10:22;;;;;;;6.55;3.90;;;;;;;;;;5013589;28;20386;-68
2022/09/25 14:12:51;;;;;;;4.68;3.28;;;;;;;;;;5013334;28;20022;-68
2022/09/25 14:15:21;;;;;;;4.90;3.30;;;;;;;;;;5013570;28;20117;-67
2022/09/25 14:17:51;;;;;;;6.70;4.20;;;;;;;;;;5013364;28;20064;-67
2022/09/25 14:20:27;;;;;;;5.65;3.97;;;;;;;;;;5013091;28;20036;-69
2022/09/25 14:22:55;;;;;;;7.38;4.25;;;;;;;;;;5012049;28;20030;-68
2022/09/25 14:25:34;;;;;;;5.47;3.80;;;;;;;;;;5011898;28;20026;-68
2022/09/25 14:28:03;;;;;;;7.03;4.18;;;;;;;;;;5011890;28;20026;-68
2022/09/25 14:30:31;;;;;;;6.78;4.22;;;;;;;;;;5011793;28;20045;-68
2022/09/25 14:33:17;;;;;;;5.88;3.70;;;;;;;;;;5013043;28;20030;-68
2022/09/25 14:35:53;;;;;;;6.35;3.80;;;;;;;;;;5013146;28;20026;-68
2022/09/25 14:38:35;;;;;;;7.00;3.95;;;;;;;;;;5015648;28;20037;-68
2022/09/25 14:41:22;;;;;;;8.82;3.97;;;;;;;;;;5016985;28;20030;-68
2022/09/25 14:44:08;;;;;;;7.80;4.30;;;;;;;;;;5016821;28;20026;-68
2022/09/25 14:46:35;;;;;;;6.53;4.22;;;;;;;;;;5016889;28;20049;-68
2022/09/25 14:49:14;;;;;;;5.25;3.92;;;;;;;;;;5015503;28;20068;-68
2022/09/25 14:51:46;;;;;;;6.75;3.95;;;;;;;;;;5015555;28;20026;-67
2022/09/25 14:54:20;;;;;;;6.32;3.95;;;;;;;;;;5017027;28;20474;-67
2022/09/25 14:56:50;;;;;;;5.45;3.65;;;;;;;;;;5015384;28;20034;-67
2022/09/25 14:59:20;;;;;;;7.57;3.87;;;;;;;;;;5015142;28;20371;-68
2022/09/25 15:01:51;;;;;;;7.10;4.27;;;;;;;;;;5015420;28;20456;-67
2022/09/25 15:04:26;;;;;;;5.15;3.60;;;;;;;;;;5015251;28;20026;-67
2022/09/25 15:07:00;;;;;;;6.38;3.67;;;;;;;;;;5016413;28;20117;-67
2022/09/25 15:09:29;;;;;;;4.93;3.35;;;;;;;;;;5016463;28;20429;-67
2022/09/25 15:11:56;;;;;;;4.53;3.60;;;;;;;;;;5016427;28;20029;-67
2022/09/25 15:14:23;;;;;;;5.85;3.80;;;;;;;;;;5016761;28;20029;-67
2022/09/25 15:19:41;;;;;;;5.00;3.60;;;;;;;;;;5016331;28;20065;-67
2022/09/25 15:22:22;;;;;;;7.40;3.83;;;;;;;;;;5016348;28;20031;-67
2022/09/25 15:24:54;;;;;;;6.40;3.78;;;;;;;;;;5016272;28;20072;-67
2022/09/25 15:27:22;;;;;;;6.32;3.95;;;;;;;;;;5016233;28;20553;-67
2022/09/25 15:29:50;;;;;;;6.78;4.25;;;;;;;;;;5016155;28;20037;-67